Time;durP1;ratioP1;P1;durP2;ratioP2;P2;SDS_P1;SDS_P2;PMS_P1;PMS_P2;Temp;Humidity;BMP_temperature;BMP_pressure;BME280_temperature;BME280_humidity;BME280_pressure;Samples;Min_cycle;Max_cycle;Signal;HPM_P1;HPM_P2
2022/08/07 00:02:14;;;;;;;;;;;14.40;99.90;;;;;;4928739;28;19926;-84
2022/08/07 00:04:40;;;;;;;;;;;13.90;99.90;;;;;;4926958;28;19926;-85
2022/08/07 00:07:06;;;;;;;;;;;13.80;99.90;;;;;;4941359;28;20200;-86
2022/08/07 00:09:31;;;;;;;;;;;13.70;99.90;;;;;;4924145;28;20299;-84
2022/08/07 00:11:57;;;;;;;;;;;13.70;99.90;;;;;;4926975;29;20460;-84
2022/08/07 00:14:25;;;;;;;;;;;13.70;99.90;;;;;;4976564;28;19932;-86
2022/08/07 00:17:28;;;;;;;;;;;13.60;99.90;;;;;;4946896;28;19953;-84
2022/08/07 00:19:54;;;;;;;;;;;13.60;99.90;;;;;;4954651;28;19930;-83
2022/08/07 00:22:26;;;;;;;;;;;13.50;99.90;;;;;;4980614;23;19948;-86
2022/08/07 00:24:53;;;;;;;;;;;13.50;99.90;;;;;;4924594;28;19965;-82
2022/08/07 00:27:18;;;;;;;;;;;13.40;99.90;;;;;;4952637;28;20669;-84
2022/08/07 00:29:44;;;;;;;;;;;13.40;99.90;;;;;;4934320;28;19922;-88
2022/08/07 00:32:19;;;;;;;;;;;13.40;99.90;;;;;;4934183;28;20372;-84
2022/08/07 00:34:48;;;;;;;;;;;13.40;99.90;;;;;;4939102;28;19933;-85
2022/08/07 00:37:17;;;;;;;;;;;13.30;99.90;;;;;;4934868;28;20025;-87
2022/08/07 00:39:44;;;;;;;;;;;13.30;99.90;;;;;;4940042;28;19926;-84
2022/08/07 00:42:20;;;;;;;;;;;13.30;99.90;;;;;;4939993;28;19922;-85
2022/08/07 00:44:46;;;;;;;;;;;13.30;99.90;;;;;;4966063;28;19926;-82
2022/08/07 00:47:11;;;;;;;;;;;13.20;99.90;;;;;;4937951;28;19989;-85
2022/08/07 00:49:43;;;;;;;;;;;13.20;99.90;;;;;;4955248;28;20414;-83
2022/08/07 00:52:18;;;;;;;;;;;13.20;99.90;;;;;;4965080;28;20032;-83
2022/08/07 00:54:51;;;;;;;;;;;13.20;99.90;;;;;;4941893;28;19925;-87
2022/08/07 00:57:17;;;;;;;;;;;13.20;99.90;;;;;;4925148;28;19972;-86
2022/08/07 00:59:46;;;;;;;;;;;13.20;99.90;;;;;;4952786;28;20006;-85
2022/08/07 01:02:12;;;;;;;;;;;13.20;99.90;;;;;;4928389;28;20005;-84
2022/08/07 01:04:38;;;;;;;;;;;13.10;99.90;;;;;;4927903;28;19934;-83
2022/08/07 01:07:23;;;;;;;;;;;13.10;99.90;;;;;;4928681;28;19952;-86
2022/08/07 01:09:48;;;;;;;;;;;13.10;99.90;;;;;;4963447;28;20059;-86
2022/08/07 01:12:15;;;;;;;;;;;13.10;99.90;;;;;;4953051;28;20056;-87
2022/08/07 01:14:42;;;;;;;;;;;13.00;99.90;;;;;;4933125;29;19923;-87
2022/08/07 01:17:08;;;;;;;;;;;13.00;99.90;;;;;;4935159;28;19927;-83
2022/08/07 01:19:34;;;;;;;;;;;13.00;99.90;;;;;;4953133;28;20012;-85
2022/08/07 01:22:02;;;;;;;;;;;13.00;99.90;;;;;;4938816;28;19961;-86
2022/08/07 01:24:28;;;;;;;;;;;12.90;99.90;;;;;;4952987;28;20475;-85
2022/08/07 01:26:54;;;;;;;;;;;13.00;99.90;;;;;;4939052;28;20400;-83
2022/08/07 01:29:33;;;;;;;;;;;13.00;99.90;;;;;;4938034;28;19926;-85
2022/08/07 01:32:08;;;;;;;;;;;12.90;99.90;;;;;;4949489;28;19933;-87
2022/08/07 01:34:34;;;;;;;;;;;13.20;99.90;;;;;;4922351;28;19945;-80
2022/08/07 01:37:00;;;;;;;;;;;12.90;99.90;;;;;;4941232;28;19926;-82
2022/08/07 01:39:43;;;;;;;;;;;12.80;99.90;;;;;;4955827;28;19933;-83
2022/08/07 01:42:13;;;;;;;;;;;12.80;99.90;;;;;;4951839;28;19930;-81
2022/08/07 01:44:46;;;;;;;;;;;12.70;99.90;;;;;;4940105;28;19934;-80
2022/08/07 01:47:22;;;;;;;;;;;12.70;99.90;;;;;;4928984;28;19992;-87
2022/08/07 01:49:49;;;;;;;;;;;12.60;99.90;;;;;;4935281;29;19970;-83
2022/08/07 01:52:15;;;;;;;;;;;12.60;99.90;;;;;;4931373;28;20013;-80
2022/08/07 01:54:42;;;;;;;;;;;12.50;99.90;;;;;;4934798;28;19933;-80
2022/08/07 01:57:22;;;;;;;;;;;12.40;99.90;;;;;;4952420;28;20369;-80
2022/08/07 01:59:53;;;;;;;;;;;12.30;99.90;;;;;;4934521;28;20087;-80
2022/08/07 02:02:26;;;;;;;;;;;12.30;99.90;;;;;;4943389;28;19930;-79
